Time;durP1;ratioP1;P1;durP2;ratioP2;P2;SDS_P1;SDS_P2;PMS_P1;PMS_P2;Temp;Humidity;BMP_temperature;BMP_pressure;BME280_temperature;BME280_humidity;BME280_pressure;Samples;Min_cycle;Max_cycle;Signal;HPM_P1;HPM_P2
2023/03/14 00:00:17;;;;;;;;;1.00;1.00;;;;;11.05;68.46;98748.44;5030792;28;9857;-67
2023/03/14 00:02:44;;;;;;;;;0.00;0.00;;;;;11.05;68.74;98736.84;5027484;28;10016;-67
2023/03/14 00:05:10;;;;;;;;;1.00;1.00;;;;;11.05;69.04;98753.81;5030856;28;9743;-67
2023/03/14 00:07:39;;;;;;;;;0.50;0.00;;;;;11.03;69.41;98757.84;5029136;28;9966;-68
2023/03/14 00:10:09;;;;;;;;;1.00;1.00;;;;;11.04;69.35;98756.75;5030734;28;9845;-68
2023/03/14 00:12:35;;;;;;;;;1.00;0.25;;;;;11.11;69.40;98752.84;5029502;28;9814;-68
2023/03/14 00:15:03;;;;;;;;;1.00;1.00;;;;;11.13;69.25;98758.78;5027696;28;9851;-67
2023/03/14 00:17:30;;;;;;;;;1.00;1.00;;;;;11.10;69.54;98748.53;5026202;28;9763;-68
2023/03/14 00:19:57;;;;;;;;;0.25;0.25;;;;;11.14;69.34;98746.97;5028375;28;11919;-67
2023/03/14 00:22:23;;;;;;;;;2.00;1.00;;;;;11.11;69.22;98744.75;5030114;28;10542;-67
2023/03/14 00:24:50;;;;;;;;;3.00;1.25;;;;;11.08;69.65;98757.91;5029848;28;9976;-67
2023/03/14 00:27:16;;;;;;;;;2.00;1.00;;;;;11.12;69.73;98745.56;5028932;28;9885;-69
2023/03/14 00:29:43;;;;;;;;;2.00;0.75;;;;;11.18;69.78;98744.59;5030536;28;10675;-68
2023/03/14 00:32:10;;;;;;;;;1.00;1.00;;;;;11.20;69.92;98741.63;5044398;28;9962;-67
2023/03/14 00:34:39;;;;;;;;;2.25;1.00;;;;;10.99;69.72;98733.28;5025549;28;9899;-68
2023/03/14 00:37:06;;;;;;;;;2.00;2.00;;;;;10.95;70.40;98734.84;5030613;28;9841;-68
2023/03/14 00:39:32;;;;;;;;;2.75;2.25;;;;;10.95;70.19;98734.84;5028391;28;10006;-67
2023/03/14 00:41:59;;;;;;;;;0.75;0.75;;;;;10.99;70.40;98741.38;5030373;28;10064;-67
2023/03/14 00:44:26;;;;;;;;;4.75;1.00;;;;;10.93;70.17;98736.16;5044211;28;9768;-67
2023/03/14 00:46:53;;;;;;;;;2.50;1.75;;;;;10.97;70.00;98727.31;5029657;28;10023;-68
2023/03/14 00:49:20;;;;;;;;;2.25;1.50;;;;;10.91;70.27;98738.28;5030214;28;9830;-67
2023/03/14 00:51:46;;;;;;;;;1.25;0.00;;;;;10.95;70.49;98742.09;5041372;28;9897;-68
2023/03/14 00:54:13;;;;;;;;;0.25;0.25;;;;;10.91;70.25;98739.09;5048714;28;10004;-68
2023/03/14 00:56:39;;;;;;;;;1.00;1.00;;;;;10.95;70.10;98745.63;5048152;28;10617;-67
2023/03/14 00:59:06;;;;;;;;;1.00;1.00;;;;;10.99;70.28;98737.84;5045473;28;9939;-67
2023/03/14 01:01:32;;;;;;;;;1.50;1.00;;;;;10.90;69.88;98729.41;5028957;28;9945;-68
2023/03/14 01:03:59;;;;;;;;;1.00;1.00;;;;;10.89;70.38;98733.13;5044467;28;9834;-67
2023/03/14 01:06:28;;;;;;;;;4.00;2.00;;;;;10.93;70.52;98742.34;5045422;28;9807;-67
2023/03/14 01:08:55;;;;;;;;;3.00;0.25;;;;;10.92;70.49;98747.97;5030228;28;9907;-67
2023/03/14 01:11:28;;;;;;;;;1.00;0.00;;;;;10.89;70.57;98754.66;5029857;28;10617;-67
2023/03/14 01:13:57;;;;;;;;;1.00;1.00;;;;;10.86;70.86;98749.78;5045638;28;9750;-67
2023/03/14 01:16:26;;;;;;;;;3.50;2.00;;;;;10.86;70.51;98747.91;5027632;28;10005;-68
2023/03/14 01:18:53;;;;;;;;;1.25;1.25;;;;;10.75;71.17;98742.63;5028992;28;9996;-67
2023/03/14 01:21:23;;;;;;;;;2.00;2.00;;;;;10.71;71.56;98736.91;5041031;28;9902;-67
2023/03/14 01:23:52;;;;;;;;;1.00;1.00;;;;;10.78;71.71;98739.44;5041858;28;9884;-67
2023/03/14 01:26:21;;;;;;;;;1.00;1.00;;;;;10.75;72.26;98734.56;5044160;28;9858;-67
2023/03/14 01:28:49;;;;;;;;;2.50;0.00;;;;;10.72;71.91;98730.47;5044527;28;9839;-68
2023/03/14 01:31:17;;;;;;;;;2.75;0.00;;;;;10.81;72.40;98739.75;5025171;28;10028;-68
2023/03/14 01:33:45;;;;;;;;;1.00;1.00;;;;;10.80;72.43;98740.81;5020308;28;10628;-66
2023/03/14 01:36:13;;;;;;;;;5.00;1.75;;;;;10.80;72.47;98738.13;5043324;28;9942;-68
2023/03/14 01:38:41;;;;;;;;;1.25;1.00;;;;;10.79;72.53;98749.97;5043918;28;9958;-68
2023/03/14 01:41:20;;;;;;;;;2.00;2.00;;;;;10.72;72.61;98748.50;5043123;28;11014;-68
2023/03/14 01:43:47;;;;;;;;;1.75;1.75;;;;;10.69;73.16;98739.03;5040690;28;9962;-67
2023/03/14 01:46:20;;;;;;;;;2.50;1.00;;;;;10.64;73.63;98734.38;5021552;28;10109;-68
2023/03/14 01:48:51;;;;;;;;;7.50;2.00;;;;;10.58;73.98;98734.59;5027661;28;10172;-67
2023/03/14 01:51:20;;;;;;;;;2.00;1.50;;;;;10.59;74.21;98741.59;5028803;28;9955;-68
2023/03/14 01:53:49;;;;;;;;;1.25;0.25;;;;;10.59;74.06;98731.63;5026650;28;10079;-66
2023/03/14 01:56:18;;;;;;;;;1.75;1.00;;;;;10.61;74.25;98731.38;5022641;28;10748;-68
2023/03/14 01:58:50;;;;;;;;;1.25;1.25;;;;;10.56;73.63;98724.03;5036772;28;10118;-66
2023/03/14 02:01:21;;;;;;;;;2.25;2.25;;;;;10.49;74.35;98727.97;5027991;28;10021;-66
2023/03/14 02:03:54;;;;;;;;;3.25;1.75;;;;;10.49;74.17;98718.03;5032712;28;10181;-67
2023/03/14 02:06:27;;;;;;;;;2.00;1.00;;;;;10.52;74.34;98720.22;5035872;28;10010;-67
2023/03/14 02:08:56;;;;;;;;;1.00;1.00;;;;;10.54;74.19;98711.91;5033015;28;9922;-67
2023/03/14 02:11:28;;;;;;;;;1.00;1.00;;;;;10.56;74.42;98709.78;5041900;28;9805;-67
2023/03/14 02:14:05;;;;;;;;;1.00;1.00;;;;;10.52;74.44;98708.66;5031961;28;9998;-68
2023/03/14 02:16:52;;;;;;;;;3.00;1.25;;;;;10.53;74.19;98715.66;5027870;28;9917;-67
2023/03/14 02:19:52;;;;;;;;;2.50;2.00;;;;;10.52;74.59;98706.75;5032411;28;10603;-67
2023/03/14 02:22:41;;;;;;;;;5.00;1.50;;;;;10.55;74.43;98705.47;5043868;28;10659;-68
2023/03/14 02:25:32;;;;;;;;;0.25;0.25;;;;;10.59;74.89;98703.91;5039295;28;9923;-67
2023/03/14 02:28:00;;;;;;;;;1.25;1.25;;;;;10.58;75.09;98711.19;5030556;28;10162;-67
2023/03/14 02:30:30;;;;;;;;;3.00;1.00;;;;;10.57;75.12;98703.34;5025650;28;10583;-67
2023/03/14 02:33:02;;;;;;;;;2.25;2.00;;;;;10.62;75.62;98701.56;5039749;28;10097;-66
2023/03/14 02:35:41;;;;;;;;;2.25;2.00;;;;;10.55;75.19;98697.41;5031090;28;9861;-67
2023/03/14 02:38:28;;;;;;;;;2.75;1.75;;;;;10.51;75.54;98704.34;5027088;28;9932;-68
2023/03/14 02:40:55;;;;;;;;;2.00;1.25;;;;;10.45;75.88;98692.69;5040744;28;10279;-68
2023/03/14 02:43:21;;;;;;;;;1.75;1.00;;;;;10.48;75.84;98692.19;5043353;28;10028;-68
2023/03/14 02:45:55;;;;;;;;;1.50;1.50;;;;;10.46;75.90;98698.88;5030533;28;10141;-67
2023/03/14 02:48:38;;;;;;;;;4.50;4.50;;;;;10.34;76.37;98685.53;5035404;28;10029;-67
2023/03/14 02:51:04;;;;;;;;;4.25;1.75;;;;;10.37;76.95;98682.31;5027347;28;10075;-66
2023/03/14 02:53:36;;;;;;;;;3.50;2.00;;;;;10.45;76.80;98689.16;5028756;28;10078;-67
2023/03/14 02:56:08;;;;;;;;;5.00;4.50;;;;;10.49;76.34;98683.06;5040830;28;10033;-67
2023/03/14 02:58:36;;;;;;;;;1.00;1.00;;;;;10.41;76.42;98686.16;5016989;28;10142;-67
2023/03/14 03:01:21;;;;;;;;;2.75;2.75;;;;;10.38;76.74;98678.59;5029604;28;10080;-67
2023/03/14 03:03:48;;;;;;;;;6.00;4.50;;;;;10.43;76.34;98689.41;5025825;28;10230;-68
2023/03/14 03:06:15;;;;;;;;;4.50;2.00;;;;;10.35;75.80;98669.13;5026449;28;9946;-67
2023/03/14 03:08:41;;;;;;;;;5.00;2.50;;;;;10.42;76.33;98678.91;5023226;28;9920;-67
2023/03/14 03:11:08;;;;;;;;;5.75;1.50;;;;;10.36;75.76;98675.31;5031332;28;10092;-67
2023/03/14 03:13:34;;;;;;;;;1.25;1.25;;;;;10.28;75.82;98681.94;5026166;28;10039;-68
2023/03/14 03:16:03;;;;;;;;;1.50;1.50;;;;;10.33;76.45;98673.97;5038795;28;9941;-66
2023/03/14 03:18:30;;;;;;;;;1.25;1.00;;;;;10.38;75.80;98665.97;5029842;28;10031;-67
2023/03/14 03:21:03;;;;;;;;;1.00;1.00;;;;;10.36;75.57;98668.06;5031513;28;10067;-68
2023/03/14 03:23:30;;;;;;;;;2.00;1.75;;;;;10.35;75.49;98671.81;5022827;28;9980;-68
2023/03/14 03:25:57;;;;;;;;;1.00;1.00;;;;;10.40;75.60;98657.63;5030814;28;10738;-67
2023/03/14 03:28:23;;;;;;;;;2.75;1.00;;;;;10.44;75.03;98658.75;5044392;28;9820;-67
2023/03/14 03:30:51;;;;;;;;;1.75;1.00;;;;;10.42;75.08;98658.22;5036740;28;10007;-66
2023/03/14 03:33:17;;;;;;;;;3.00;1.00;;;;;10.33;74.88;98657.81;5044539;28;10104;-67
2023/03/14 03:35:47;;;;;;;;;2.25;1.50;;;;;10.35;74.98;98655.69;5027097;28;10084;-67
2023/03/14 03:38:16;;;;;;;;;1.75;1.75;;;;;10.39;75.37;98647.94;5022921;28;10061;-68
2023/03/14 03:40:45;;;;;;;;;5.75;2.00;;;;;10.37;74.86;98652.75;5030101;28;10209;-68
2023/03/14 03:43:11;;;;;;;;;4.50;1.75;;;;;10.37;75.33;98652.75;5038072;28;10099;-67
2023/03/14 03:45:41;;;;;;;;;0.75;0.25;;;;;10.36;75.29;98651.13;5045568;28;10008;-68
2023/03/14 03:48:08;;;;;;;;;1.00;1.00;;;;;10.41;75.18;98653.88;5029814;28;10151;-66
2023/03/14 03:50:34;;;;;;;;;2.75;2.00;;;;;10.41;75.23;98656.56;5046124;28;9935;-68
2023/03/14 03:53:02;;;;;;;;;4.00;1.00;;;;;10.45;75.52;98655.03;5045838;28;10060;-69
2023/03/14 03:55:28;;;;;;;;;3.50;3.00;;;;;10.44;75.34;98650.69;5023063;28;9968;-68
2023/03/14 03:57:55;;;;;;;;;2.00;2.00;;;;;10.45;74.83;98651.50;5030479;28;10095;-67
2023/03/14 04:00:21;;;;;;;;;2.00;2.00;;;;;10.42;75.24;98658.22;5029209;28;10606;-68
2023/03/14 04:02:48;;;;;;;;;5.75;4.00;;;;;10.40;74.96;98660.31;5029698;28;10094;-67
2023/03/14 04:05:16;;;;;;;;;2.00;2.00;;;;;10.46;75.40;98669.31;5046197;28;10047;-68
2023/03/14 04:07:52;;;;;;;;;3.00;1.50;;;;;10.47;75.45;98660.97;5033942;28;10627;-66
2023/03/14 04:10:23;;;;;;;;;0.50;0.50;;;;;10.49;75.60;98658.03;5024770;28;9895;-68
2023/03/14 04:13:15;;;;;;;;;1.50;1.50;;;;;10.48;75.39;98667.16;5025119;28;10774;-67
2023/03/14 04:15:47;;;;;;;;;4.75;2.00;;;;;10.40;76.11;98665.69;5044569;28;10598;-67
2023/03/14 04:18:20;;;;;;;;;1.00;0.75;;;;;10.37;76.15;98669.72;5045531;28;9946;-67
2023/03/14 04:20:54;;;;;;;;;1.00;1.00;;;;;10.37;75.86;98669.72;5029524;28;10012;-68
2023/03/14 04:23:25;;;;;;;;;5.00;1.50;;;;;10.39;76.19;98669.47;5045027;28;10983;-67
2023/03/14 04:25:53;;;;;;;;;3.50;2.25;;;;;10.37;76.37;98674.25;5026484;28;10006;-67
2023/03/14 04:28:21;;;;;;;;;4.00;4.00;;;;;10.30;76.67;98671.75;5027947;28;10226;-67
2023/03/14 04:30:48;;;;;;;;;6.00;4.00;;;;;10.24;77.60;98688.81;5049644;28;10152;-67
2023/03/14 04:33:19;;;;;;;;;3.50;3.50;;;;;10.18;78.63;98678.25;5049252;28;10004;-67
2023/03/14 04:35:54;;;;;;;;;2.75;2.75;;;;;10.19;79.59;98678.00;5048994;28;10288;-67
2023/03/14 04:38:21;;;;;;;;;6.00;4.50;;;;;10.19;79.64;98683.38;5066123;28;10193;-67
2023/03/14 04:40:48;;;;;;;;;7.75;4.75;;;;;10.18;79.65;98673.69;5028713;28;10820;-67
2023/03/14 04:43:17;;;;;;;;;5.00;5.00;;;;;10.16;79.87;98659.66;5025903;28;9994;-66
2023/03/14 04:45:49;;;;;;;;;5.50;4.00;;;;;10.16;80.52;98678.47;5028634;28;10325;-68
2023/03/14 04:48:16;;;;;;;;;1.25;1.25;;;;;10.18;81.03;98660.25;5029243;28;10187;-67
2023/03/14 04:50:43;;;;;;;;;4.00;3.00;;;;;10.09;80.76;98659.03;5035327;28;10174;-67
2023/03/14 04:53:09;;;;;;;;;8.50;7.00;;;;;10.04;80.97;98661.63;5019485;28;10193;-66
2023/03/14 04:55:36;;;;;;;;;7.50;6.00;;;;;10.00;81.26;98663.97;5043990;28;10238;-67
2023/03/14 04:58:04;;;;;;;;;5.50;4.75;;;;;9.96;81.56;98662.81;5014898;28;10329;-67
2023/03/14 05:00:30;;;;;;;;;3.50;3.50;;;;;9.99;82.17;98659.66;5040080;28;10259;-68
2023/03/14 05:03:07;;;;;;;;;4.75;4.75;;;;;9.98;82.00;98649.16;5037680;28;10291;-66
2023/03/14 05:05:47;;;;;;;;;7.00;1.50;;;;;9.99;82.10;98650.78;5040191;28;10207;-67
2023/03/14 05:08:39;;;;;;;;;5.25;5.00;;;;;9.98;82.33;98649.97;5026279;28;10338;-67
2023/03/14 05:11:22;;;;;;;;;4.00;4.00;;;;;9.95;82.10;98653.16;5035279;28;10103;-66
2023/03/14 05:13:59;;;;;;;;;4.50;3.00;;;;;9.91;82.88;98649.31;5030476;28;10338;-64
2023/03/14 05:16:40;;;;;;;;;2.50;2.00;;;;;9.94;82.60;98646.16;5043574;28;10077;-67
2023/03/14 05:19:22;;;;;;;;;4.75;2.25;;;;;9.89;82.85;98646.06;5029362;28;10080;-68
2023/03/14 05:22:10;;;;;;;;;2.00;2.00;;;;;9.78;83.20;98642.38;5044978;28;10196;-66
2023/03/14 05:24:56;;;;;;;;;7.25;3.25;;;;;9.76;83.18;98646.38;5029756;28;10905;-67
2023/03/14 05:27:31;;;;;;;;;5.25;4.50;;;;;9.76;83.67;98646.38;5030276;28;10228;-67
2023/03/14 05:30:16;;;;;;;;;4.25;4.00;;;;;9.79;84.16;98648.56;5028721;28;11466;-67
2023/03/14 05:33:06;;;;;;;;;5.25;5.00;;;;;9.82;83.97;98656.16;5025285;28;10436;-67
2023/03/14 05:35:43;;;;;;;;;9.00;5.00;;;;;9.78;84.02;98660.38;5033627;28;10979;-66
2023/03/14 05:38:19;;;;;;;;;5.00;2.50;;;;;9.79;83.83;98670.88;5038662;28;10321;-67
2023/03/14 05:41:18;;;;;;;;;4.00;4.00;;;;;9.75;84.39;98675.09;5022185;28;10310;-67
2023/03/14 05:44:13;;;;;;;;;3.50;3.00;;;;;9.74;84.40;98686.91;5048103;28;10336;-65
2023/03/14 05:46:55;;;;;;;;;4.00;2.00;;;;;9.71;84.62;98695.44;5033141;28;10242;-66
2023/03/14 05:49:48;;;;;;;;;4.00;1.00;;;;;9.68;84.71;98713.91;5030698;28;10228;-67
2023/03/14 05:52:33;;;;;;;;;0.50;0.50;;;;;9.50;83.59;98723.81;5039831;28;10161;-66
2023/03/14 05:55:03;;;;;;;;;0.25;0.25;;;;;9.41;84.03;98726.06;5027282;28;10228;-66
2023/03/14 05:57:53;;;;;;;;;1.00;0.00;;;;;9.38;83.71;98739.13;5042275;28;10235;-66
2023/03/14 06:00:43;;;;;;;;;1.50;0.00;;;;;9.36;83.29;98736.72;5032743;28;10220;-67
2023/03/14 06:03:29;;;;;;;;;1.00;0.00;;;;;9.30;82.68;98756.44;5033335;28;10137;-67
2023/03/14 06:05:56;;;;;;;;;1.75;1.00;;;;;9.24;82.08;98761.97;5018817;28;10285;-67
2023/03/14 06:08:24;;;;;;;;;1.00;0.00;;;;;9.19;83.34;98761.81;5058062;28;10392;-69
2023/03/14 06:10:51;;;;;;;;;0.00;0.00;;;;;9.21;83.09;98768.59;5047895;28;11035;-69
2023/03/14 06:13:23;;;;;;;;;0.25;0.25;;;;;9.18;82.35;98774.44;5032573;28;10318;-69
2023/03/14 06:15:49;;;;;;;;;0.00;0.00;;;;;9.10;82.76;98783.66;5033019;28;10281;-69
2023/03/14 06:18:15;;;;;;;;;0.00;0.00;;;;;9.11;82.83;98789.84;5030145;28;10218;-68
2023/03/14 06:20:42;;;;;;;;;0.25;0.00;;;;;9.02;82.40;98785.88;5030141;28;10279;-68
2023/03/14 06:23:13;;;;;;;;;0.00;0.00;;;;;9.04;82.89;98795.34;5031035;28;10493;-68
2023/03/14 06:25:40;;;;;;;;;2.50;0.00;;;;;9.05;83.02;98796.16;5047851;28;10385;-67
2023/03/14 06:28:06;;;;;;;;;0.00;0.00;;;;;8.99;81.55;98799.75;5046326;28;10367;-67
2023/03/14 06:30:34;;;;;;;;;1.00;0.00;;;;;8.86;81.49;98822.28;5031476;28;10209;-69
2023/03/14 06:33:01;;;;;;;;;0.00;0.00;;;;;8.81;82.07;98828.34;5048015;28;10289;-69
2023/03/14 06:35:28;;;;;;;;;0.25;0.00;;;;;8.69;81.58;98840.94;5031075;28;10270;-69
2023/03/14 06:37:55;;;;;;;;;1.00;0.00;;;;;8.63;82.11;98847.22;5025318;28;10298;-68
2023/03/14 06:40:22;;;;;;;;;0.25;0.25;;;;;8.58;81.90;98855.94;5048016;28;10128;-68
2023/03/14 06:42:56;;;;;;;;;1.25;0.00;;;;;8.54;81.49;98862.81;5046542;28;10362;-68
2023/03/14 06:45:24;;;;;;;;;0.00;0.00;;;;;8.50;82.19;98874.22;5028976;28;10301;-68
2023/03/14 06:47:52;;;;;;;;;1.75;1.75;;;;;8.54;81.52;98884.25;5023843;28;10429;-68
2023/03/14 06:50:23;;;;;;;;;1.50;0.00;;;;;8.55;82.03;98885.94;5026962;28;10410;-68
2023/03/14 06:52:50;;;;;;;;;2.00;2.00;;;;;8.56;81.22;98892.91;5027266;28;10320;-68
2023/03/14 06:55:20;;;;;;;;;0.25;0.25;;;;;8.53;81.88;98897.91;5029098;28;10466;-69
2023/03/14 06:57:48;;;;;;;;;1.50;1.50;;;;;8.55;81.15;98914.63;5030319;28;11258;-68
2023/03/14 07:00:17;;;;;;;;;0.25;0.25;;;;;8.52;81.53;98912.38;5029299;28;10515;-68
2023/03/14 07:02:43;;;;;;;;;1.00;1.00;;;;;8.47;81.40;98918.44;5047654;28;10412;-68
2023/03/14 07:05:25;;;;;;;;;0.00;0.00;;;;;8.46;80.86;98927.50;5043538;28;10389;-69
2023/03/14 07:07:52;;;;;;;;;1.50;0.00;;;;;8.37;80.31;98939.59;5042020;28;10481;-68
2023/03/14 07:10:18;;;;;;;;;0.00;0.00;;;;;8.27;80.35;98947.34;5040825;28;10526;-68
2023/03/14 07:12:45;;;;;;;;;0.75;0.00;;;;;8.30;80.60;98968.31;5045379;28;11123;-69
2023/03/14 07:15:11;;;;;;;;;0.00;0.00;;;;;8.38;80.90;98981.44;5045114;28;10504;-69
2023/03/14 07:17:47;;;;;;;;;0.00;0.00;;;;;8.40;80.42;98987.41;5027931;28;10408;-68
2023/03/14 07:20:14;;;;;;;;;0.00;0.00;;;;;8.38;80.78;98992.16;5041931;28;10314;-68
2023/03/14 07:22:41;;;;;;;;;0.00;0.00;;;;;8.38;79.84;99002.88;5028584;28;10510;-67
2023/03/14 07:25:11;;;;;;;;;0.00;0.00;;;;;8.30;79.68;99024.59;5029732;28;10428;-68
2023/03/14 07:27:38;;;;;;;;;0.00;0.00;;;;;8.06;78.49;99037.88;5046297;28;10526;-67
2023/03/14 07:30:05;;;;;;;;;1.50;0.00;;;;;7.88;79.55;99070.78;5029079;28;10602;-69
2023/03/14 07:32:32;;;;;;;;;0.00;0.00;;;;;7.59;80.08;99082.19;5037671;28;10535;-69
2023/03/14 07:34:58;;;;;;;;;0.00;0.00;;;;;7.40;80.52;99098.16;5030311;28;10658;-68
2023/03/14 07:37:25;;;;;;;;;2.00;0.00;;;;;7.30;79.62;99110.41;5029232;28;10658;-68
2023/03/14 07:39:51;;;;;;;;;1.00;1.00;;;;;7.17;79.11;99132.66;5029949;28;10544;-67
2023/03/14 07:42:22;;;;;;;;;0.00;0.00;;;;;7.06;80.03;99139.53;5057956;28;10716;-66
2023/03/14 07:45:10;;;;;;;;;0.00;0.00;;;;;6.95;79.46;99145.56;5042677;28;10740;-67
2023/03/14 07:47:38;;;;;;;;;0.75;0.00;;;;;6.92;79.78;99164.69;5029282;28;10772;-69
2023/03/14 07:50:05;;;;;;;;;0.00;0.00;;;;;6.91;79.56;99166.53;5029180;28;10987;-69
2023/03/14 07:52:31;;;;;;;;;1.00;0.00;;;;;6.84;79.21;99176.44;5030768;28;11621;-68
2023/03/14 07:54:58;;;;;;;;;0.50;0.00;;;;;6.87;80.13;99188.59;5026496;28;11623;-68
2023/03/14 07:57:24;;;;;;;;;0.00;0.00;;;;;6.91;79.93;99197.81;5021577;28;10805;-67
2023/03/14 07:59:51;;;;;;;;;0.00;0.00;;;;;6.99;80.94;99204.81;5041898;28;10865;-68
2023/03/14 08:02:20;;;;;;;;;0.00;0.00;;;;;6.90;79.14;99218.41;5023331;28;10784;-68
2023/03/14 08:04:46;;;;;;;;;0.00;0.00;;;;;6.84;79.20;99221.91;5028813;28;10965;-69
2023/03/14 08:07:12;;;;;;;;;1.00;0.00;;;;;6.80;79.36;99236.72;5035482;28;10854;-69
2023/03/14 08:09:39;;;;;;;;;0.00;0.00;;;;;6.84;80.25;99245.16;5027262;28;10857;-68
2023/03/14 08:12:06;;;;;;;;;0.00;0.00;;;;;6.99;80.45;99252.94;5043670;28;10858;-68
2023/03/14 08:14:32;;;;;;;;;0.00;0.00;;;;;7.00;78.40;99270.63;5025536;28;10935;-68
2023/03/14 08:16:59;;;;;;;;;1.00;0.00;;;;;7.08;79.60;99279.25;5040588;28;10653;-67
2023/03/14 08:19:25;;;;;;;;;0.00;0.00;;;;;7.05;78.35;99293.06;5035751;28;10719;-68
2023/03/14 08:21:52;;;;;;;;;0.00;0.00;;;;;6.92;76.75;99299.25;5042136;28;10735;-68
2023/03/14 08:24:18;;;;;;;;;0.00;0.00;;;;;6.90;77.32;99306.69;5029941;28;10714;-69
2023/03/14 08:26:44;;;;;;;;;0.00;0.00;;;;;6.89;77.47;99313.06;5028377;28;10807;-69
2023/03/14 08:29:12;;;;;;;;;1.00;0.00;;;;;6.93;77.65;99330.34;5029943;28;10842;-68
2023/03/14 08:31:39;;;;;;;;;1.00;0.00;;;;;6.91;77.06;99328.91;5023646;28;10738;-69
2023/03/14 08:34:06;;;;;;;;;0.00;0.00;;;;;7.07;77.42;99338.34;5025653;28;10737;-69
2023/03/14 08:36:33;;;;;;;;;1.00;1.00;;;;;7.25;77.86;99349.22;5041540;28;11551;-69
2023/03/14 08:39:00;;;;;;;;;1.00;0.00;;;;;7.39;76.46;99360.72;5027710;28;11718;-68
2023/03/14 08:41:26;;;;;;;;;0.50;0.00;;;;;7.44;75.87;99383.13;5023647;28;10849;-68
2023/03/14 08:43:53;;;;;;;;;1.00;0.00;;;;;7.26;74.21;99382.97;5027133;28;10756;-66
2023/03/14 08:46:19;;;;;;;;;0.25;0.25;;;;;7.21;74.92;99398.00;5023686;28;10875;-68
2023/03/14 08:48:46;;;;;;;;;0.50;0.50;;;;;7.29;74.91;99408.50;5028043;28;10836;-69
2023/03/14 08:51:13;;;;;;;;;1.00;1.00;;;;;7.32;74.46;99414.25;5027298;28;10891;-69
2023/03/14 08:53:41;;;;;;;;;1.50;0.25;;;;;7.24;74.08;99425.19;5040931;28;10857;-69
2023/03/14 08:56:09;;;;;;;;;1.00;1.00;;;;;7.17;72.88;99435.91;5024493;28;10782;-68
2023/03/14 08:58:37;;;;;;;;;1.50;1.50;;;;;7.21;73.43;99444.34;5027621;28;10721;-69
2023/03/14 09:01:09;;;;;;;;;0.00;0.00;;;;;7.12;72.73;99443.72;5023142;28;10813;-69
2023/03/14 09:03:36;;;;;;;;;5.25;2.00;;;;;7.05;71.97;99469.66;5025825;28;10894;-69
2023/03/14 09:06:08;;;;;;;;;2.00;2.00;;;;;7.13;72.71;99469.47;5026812;28;10861;-70
2023/03/14 09:08:35;;;;;;;;;0.50;0.50;;;;;7.18;72.46;99474.19;5029399;28;10846;-68
2023/03/14 09:11:07;;;;;;;;;1.25;1.00;;;;;7.27;72.57;99491.69;5031896;28;10979;-69
2023/03/14 09:13:34;;;;;;;;;4.75;0.50;;;;;7.26;71.71;99490.03;5032547;28;10808;-69
2023/03/14 09:16:01;;;;;;;;;2.00;1.00;;;;;7.30;71.91;99506.53;5029033;28;10900;-69
2023/03/14 09:18:28;;;;;;;;;1.50;1.25;;;;;7.42;72.46;99508.38;5034774;28;10840;-69
2023/03/14 09:20:55;;;;;;;;;1.75;1.75;;;;;7.50;72.27;99517.22;5028048;28;10962;-69
2023/03/14 09:23:22;;;;;;;;;0.50;0.50;;;;;7.34;70.34;99519.28;5034023;28;10791;-69
2023/03/14 09:25:48;;;;;;;;;2.00;0.00;;;;;7.28;71.46;99532.66;5030840;28;10737;-69
2023/03/14 09:28:15;;;;;;;;;2.00;0.75;;;;;7.28;71.79;99556.75;5032027;28;10939;-68
2023/03/14 09:30:41;;;;;;;;;1.00;1.00;;;;;7.18;71.55;99552.63;5033634;28;10983;-67
2023/03/14 09:33:08;;;;;;;;;0.00;0.00;;;;;7.08;72.16;99570.09;5029777;28;10849;-67
2023/03/14 09:35:34;;;;;;;;;1.00;1.00;;;;;7.11;73.11;99583.06;5032819;28;10893;-67
2023/03/14 09:38:01;;;;;;;;;4.00;1.00;;;;;7.19;71.97;99606.97;5032589;28;10802;-67
2023/03/14 09:40:33;;;;;;;;;0.00;0.00;;;;;6.99;71.15;99616.78;5032812;28;10943;-67
2023/03/14 09:43:00;;;;;;;;;1.00;1.00;;;;;7.03;71.15;99620.72;5034954;28;10815;-67
2023/03/14 09:45:31;;;;;;;;;0.00;0.00;;;;;7.04;71.87;99622.34;5031275;28;10671;-69
2023/03/14 09:47:58;;;;;;;;;0.00;0.00;;;;;7.17;72.87;99633.09;5032878;28;11492;-68
2023/03/14 09:50:30;;;;;;;;;1.00;1.00;;;;;7.22;72.56;99638.69;5032650;28;10741;-67
2023/03/14 09:53:03;;;;;;;;;7.00;2.00;;;;;7.31;72.34;99647.34;5031410;28;10746;-68
2023/03/14 09:55:30;;;;;;;;;1.75;1.00;;;;;7.23;71.29;99648.34;5030424;28;10753;-68
2023/03/14 09:58:02;;;;;;;;;0.00;0.00;;;;;7.22;71.15;99649.38;5035212;28;10708;-67
2023/03/14 10:00:31;;;;;;;;;1.75;1.75;;;;;7.30;70.69;99657.25;5042649;28;10830;-67
2023/03/14 10:03:12;;;;;;;;;0.00;0.00;;;;;7.45;71.01;99670.44;5035461;28;10953;-68
2023/03/14 10:05:41;;;;;;;;;0.75;0.75;;;;;7.53;70.40;99675.59;5043510;28;10729;-68
2023/03/14 10:08:12;;;;;;;;;2.50;1.50;;;;;7.58;70.76;99677.69;5032811;28;10730;-68
2023/03/14 10:10:39;;;;;;;;;2.00;1.00;;;;;7.56;70.33;99687.78;5034305;28;10969;-67
2023/03/14 10:13:24;;;;;;;;;0.25;0.00;;;;;7.63;69.89;99696.66;5035968;28;10710;-69
2023/03/14 10:15:54;;;;;;;;;2.25;1.00;;;;;7.28;66.72;99725.38;5030187;28;10590;-68
2023/03/14 10:18:23;;;;;;;;;3.75;2.00;;;;;7.07;65.47;99737.03;5016212;28;10748;-69
2023/03/14 10:21:03;;;;;;;;;3.50;1.50;;;;;7.03;66.69;99741.94;5019102;28;10686;-67
2023/03/14 10:23:33;;;;;;;;;0.00;0.00;;;;;7.23;67.25;99758.09;5030383;28;10931;-68
2023/03/14 10:26:12;;;;;;;;;4.00;1.75;;;;;7.31;66.15;99749.91;5036418;28;11466;-68
2023/03/14 10:28:47;;;;;;;;;2.50;2.50;;;;;7.41;65.65;99763.75;5033894;28;10951;-67
2023/03/14 10:31:14;;;;;;;;;0.75;0.75;;;;;7.50;65.42;99777.78;5032931;28;10740;-68
2023/03/14 10:33:41;;;;;;;;;0.00;0.00;;;;;7.56;65.14;99778.81;5032491;28;10892;-67
2023/03/14 10:36:14;;;;;;;;;4.00;0.75;;;;;7.58;63.24;99787.50;5028318;28;10713;-66
2023/03/14 10:38:42;;;;;;;;;0.00;0.00;;;;;7.66;61.98;99804.22;5032616;28;10863;-66
2023/03/14 10:41:25;;;;;;;;;0.25;0.25;;;;;7.66;60.08;99822.97;5032262;28;10580;-68
2023/03/14 10:43:58;;;;;;;;;1.25;1.00;;;;;7.83;59.69;99823.44;5048155;28;10666;-68
2023/03/14 10:46:29;;;;;;;;;2.25;1.00;;;;;8.07;60.07;99824.72;5031165;28;10669;-67
2023/03/14 10:49:28;;;;;;;;;3.00;0.00;;;;;8.24;58.31;99835.88;5030175;28;10569;-67
2023/03/14 10:51:54;;;;;;;;;1.00;0.00;;;;;8.28;58.62;99861.25;5044394;28;10420;-67
2023/03/14 10:54:23;;;;;;;;;2.00;1.00;;;;;8.20;57.96;99858.78;5032153;28;10803;-67
2023/03/14 10:57:00;;;;;;;;;1.00;0.50;;;;;8.22;56.63;99872.78;5018208;28;10663;-69
2023/03/14 10:59:37;;;;;;;;;1.00;1.00;;;;;8.33;56.30;99879.41;5012653;28;10676;-68
2023/03/14 11:02:14;;;;;;;;;1.00;1.00;;;;;8.47;56.43;99893.69;5027192;28;10612;-69
2023/03/14 11:05:04;;;;;;;;;0.50;0.00;;;;;8.47;55.53;99904.44;5045064;28;11229;-67
2023/03/14 11:07:39;;;;;;;;;1.00;1.00;;;;;8.50;54.16;99914.75;5027562;28;10521;-68
2023/03/14 11:10:16;;;;;;;;;0.75;0.75;;;;;8.55;54.55;99906.94;5031051;28;10574;-67
2023/03/14 11:13:07;;;;;;;;;2.00;0.25;;;;;8.59;54.67;99929.66;5027575;28;10364;-68
2023/03/14 11:15:40;;;;;;;;;0.00;0.00;;;;;8.75;52.15;99934.63;5019579;28;10562;-70
2023/03/14 11:18:15;;;;;;;;;1.00;1.00;;;;;8.85;52.76;99936.91;5031980;28;11263;-68
2023/03/14 11:21:18;;;;;;;;;2.75;0.25;;;;;8.85;51.63;99953.00;5021661;28;10397;-68
2023/03/14 11:24:12;;;;;;;;;0.25;0.25;;;;;8.87;50.61;99957.16;5047075;28;10376;-66
2023/03/14 11:26:45;;;;;;;;;0.00;0.00;;;;;8.83;48.10;99968.47;5019008;28;10512;-69
2023/03/14 11:29:31;;;;;;;;;0.00;0.00;;;;;8.72;48.11;99983.31;5011853;28;10207;-68
2023/03/14 11:32:02;;;;;;;;;2.00;0.00;;;;;8.81;50.01;99992.84;5026508;28;10509;-68
2023/03/14 11:34:53;;;;;;;;;1.50;0.00;;;;;8.85;50.10;99995.94;5011582;28;10346;-67
2023/03/14 11:37:44;;;;;;;;;0.25;0.00;;;;;8.99;49.59;100005.66;5027559;28;10282;-69
2023/03/14 11:40:10;;;;;;;;;1.00;1.00;;;;;9.06;48.05;100022.59;5031812;28;10358;-70
2023/03/14 11:42:40;;;;;;;;;0.25;0.25;;;;;9.05;47.76;100004.84;5046763;28;10315;-69
2023/03/14 11:45:18;;;;;;;;;0.00;0.00;;;;;9.05;47.86;100033.56;5029016;28;10341;-69
2023/03/14 11:47:55;;;;;;;;;0.25;0.25;;;;;9.12;48.57;100037.09;5030809;28;10138;-69
2023/03/14 11:50:26;;;;;;;;;1.00;0.00;;;;;8.94;47.89;100048.38;5030307;28;10223;-70
2023/03/14 11:53:14;;;;;;;;;0.00;0.00;;;;;8.86;46.28;100045.88;5030324;28;10289;-69
2023/03/14 11:55:42;;;;;;;;;4.50;1.50;;;;;8.90;47.15;100053.34;5025965;28;10238;-69
2023/03/14 11:58:17;;;;;;;;;0.00;0.00;;;;;8.73;47.41;100070.00;5011434;28;10301;-69